Time;durP1;ratioP1;P1;durP2;ratioP2;P2;SDS_P1;SDS_P2;PMS_P1;PMS_P2;Temp;Humidity;BMP_temperature;BMP_pressure;BME280_temperature;BME280_humidity;BME280_pressure;Samples;Min_cycle;Max_cycle;Signal;HPM_P1;HPM_P2
2023/12/21 00:02:13;;;;;;;20.83;6.40;;;9.30;99.90;;;;;;4986614;28;20085;-83
2023/12/21 00:04:38;;;;;;;23.13;6.73;;;9.30;99.90;;;;;;4985909;28;20122;-84
2023/12/21 00:07:04;;;;;;;17.53;5.57;;;9.30;99.90;;;;;;4987152;28;20037;-84
2023/12/21 00:09:30;;;;;;;19.77;6.50;;;9.30;99.90;;;;;;4985606;28;20022;-84
2023/12/21 00:11:56;;;;;;;21.77;5.33;;;9.30;99.90;;;;;;4985715;28;20058;-83
2023/12/21 00:14:23;;;;;;;20.70;5.90;;;9.30;99.90;;;;;;4986061;28;20049;-83
2023/12/21 00:16:50;;;;;;;17.30;6.23;;;9.30;99.90;;;;;;4985514;28;20028;-83
2023/12/21 00:19:15;;;;;;;24.57;5.93;;;9.30;99.90;;;;;;4986401;28;20068;-83
2023/12/21 00:21:41;;;;;;;19.63;6.53;;;9.30;99.90;;;;;;4985291;28;20479;-83
2023/12/21 00:24:07;;;;;;;26.37;5.57;;;9.30;99.90;;;;;;4986656;28;20030;-84
2023/12/21 00:26:32;;;;;;;23.57;5.37;;;9.30;99.90;;;;;;4984826;28;20026;-84
2023/12/21 00:28:58;;;;;;;20.83;6.90;;;9.30;99.90;;;;;;4986360;28;20042;-84
2023/12/21 00:31:24;;;;;;;18.10;5.07;;;9.30;99.90;;;;;;4985634;28;20029;-82
2023/12/21 00:33:49;;;;;;;15.90;5.67;;;9.30;99.90;;;;;;5002180;28;20026;-82
2023/12/21 00:36:16;;;;;;;20.73;5.57;;;9.30;99.90;;;;;;4985319;28;20897;-82
2023/12/21 00:38:42;;;;;;;21.50;5.17;;;9.30;99.90;;;;;;4985123;28;20101;-83
2023/12/21 00:41:07;;;;;;;20.57;6.00;;;9.30;99.90;;;;;;4986430;28;20097;-82
2023/12/21 00:43:33;;;;;;;18.23;5.73;;;9.30;99.90;;;;;;4984569;28;20476;-83
2023/12/21 00:45:59;;;;;;;17.53;6.07;;;9.30;99.90;;;;;;4986077;28;20037;-83
2023/12/21 00:48:25;;;;;;;16.93;5.63;;;9.40;99.90;;;;;;4985495;28;20065;-84
2023/12/21 00:50:51;;;;;;;18.10;5.40;;;9.40;99.90;;;;;;4985562;28;20026;-83
2023/12/21 00:53:19;;;;;;;15.10;5.57;;;9.40;99.90;;;;;;4985549;28;20037;-83
2023/12/21 00:55:45;;;;;;;15.97;6.33;;;9.30;99.90;;;;;;4984919;28;20033;-83
2023/12/21 00:58:10;;;;;;;20.07;6.37;;;9.40;99.90;;;;;;4985903;28;20509;-82
2023/12/21 01:00:36;;;;;;;19.93;6.87;;;9.40;99.90;;;;;;4984294;28;20121;-82
2023/12/21 01:03:02;;;;;;;17.23;6.07;;;9.40;99.90;;;;;;5003855;28;20034;-82
2023/12/21 01:05:28;;;;;;;20.33;5.73;;;9.40;99.90;;;;;;4984742;28;20033;-82
2023/12/21 01:07:53;;;;;;;16.47;6.23;;;9.40;99.90;;;;;;4985141;28;20023;-82
2023/12/21 01:10:19;;;;;;;18.87;6.87;;;9.40;99.90;;;;;;4985420;28;20597;-82
2023/12/21 01:12:44;;;;;;;23.73;7.87;;;9.40;99.90;;;;;;5001000;28;20032;-84
2023/12/21 01:15:10;;;;;;;19.20;6.47;;;9.40;99.90;;;;;;4985365;28;20058;-82
2023/12/21 01:17:36;;;;;;;19.83;7.20;;;9.40;99.90;;;;;;4985405;28;20046;-83
2023/12/21 01:20:02;;;;;;;26.90;8.00;;;9.40;99.90;;;;;;5004232;28;20037;-82
2023/12/21 01:22:27;;;;;;;23.13;8.43;;;9.50;99.90;;;;;;5003150;28;20026;-82
2023/12/21 01:24:53;;;;;;;23.20;7.70;;;9.40;99.90;;;;;;5004940;28;20030;-83
2023/12/21 01:27:20;;;;;;;23.43;7.90;;;9.50;99.90;;;;;;5004338;28;20036;-83
2023/12/21 01:29:46;;;;;;;21.83;6.83;;;9.50;99.90;;;;;;5003778;28;20466;-84
2023/12/21 01:32:12;;;;;;;15.43;6.63;;;9.50;99.90;;;;;;5004746;28;20422;-84
2023/12/21 01:34:38;;;;;;;22.50;7.87;;;9.50;99.90;;;;;;5002963;28;20560;-84
2023/12/21 01:37:03;;;;;;;22.83;7.27;;;9.50;99.90;;;;;;5005253;28;20454;-84
2023/12/21 01:39:29;;;;;;;29.03;8.63;;;9.50;99.90;;;;;;5003310;28;20453;-84
2023/12/21 01:41:55;;;;;;;22.43;7.37;;;9.50;99.90;;;;;;5004825;28;20022;-85
2023/12/21 01:44:20;;;;;;;15.43;5.80;;;9.50;99.90;;;;;;5021132;28;20053;-85
2023/12/21 01:46:46;;;;;;;19.43;6.10;;;9.50;99.90;;;;;;5003869;28;20028;-84
2023/12/21 01:49:13;;;;;;;22.27;6.53;;;9.50;99.90;;;;;;5004357;28;20022;-84
2023/12/21 01:51:39;;;;;;;23.80;6.00;;;9.50;99.90;;;;;;5003729;28;20081;-84
2023/12/21 01:54:07;;;;;;;18.90;5.47;;;9.50;99.90;;;;;;5004695;28;20026;-84
2023/12/21 01:56:33;;;;;;;22.93;5.47;;;9.50;99.90;;;;;;5003209;28;20429;-84
2023/12/21 01:59:00;;;;;;;20.33;5.20;;;9.50;99.90;;;;;;5004110;28;20038;-84
2023/12/21 02:01:26;;;;;;;16.40;4.30;;;9.60;99.90;;;;;;5003944;28;20040;-83
2023/12/21 02:03:54;;;;;;;21.60;4.53;;;9.60;99.90;;;;;;5003592;28;20021;-84
2023/12/21 02:06:20;;;;;;;18.77;4.27;;;9.60;99.90;;;;;;5004482;28;20453;-84
2023/12/21 02:08:46;;;;;;;19.58;4.72;;;9.60;99.90;;;;;;5003123;28;20032;-83
2023/12/21 02:11:11;;;;;;;20.03;4.73;;;9.60;99.90;;;;;;5004637;28;20018;-84
2023/12/21 02:13:37;;;;;;;17.07;4.13;;;9.60;99.90;;;;;;5002648;28;20017;-84
2023/12/21 02:16:28;;;;;;;12.20;3.53;;;9.60;99.90;;;;;;5004469;28;20378;-84
2023/12/21 02:18:53;;;;;;;18.73;4.00;;;9.60;99.90;;;;;;4993613;28;20447;-84
2023/12/21 02:21:21;;;;;;;17.00;4.13;;;9.60;99.90;;;;;;5021308;28;20113;-85
2023/12/21 02:23:50;;;;;;;14.97;3.90;;;9.60;99.90;;;;;;5004200;28;20029;-84
2023/12/21 02:26:18;;;;;;;17.43;4.30;;;9.60;99.90;;;;;;5002590;28;20026;-85
2023/12/21 02:28:43;;;;;;;20.57;4.63;;;9.60;99.90;;;;;;5004158;28;20196;-84
2023/12/21 02:31:09;;;;;;;19.50;4.90;;;9.60;99.90;;;;;;5003177;28;20036;-84
2023/12/21 02:33:35;;;;;;;17.90;4.07;;;9.60;99.90;;;;;;5003925;28;20029;-84
2023/12/21 02:36:02;;;;;;;18.67;4.70;;;9.60;99.90;;;;;;5005918;28;20059;-84
2023/12/21 02:38:28;;;;;;;21.37;4.10;;;9.60;99.90;;;;;;5006760;28;20048;-84
2023/12/21 02:40:54;;;;;;;21.93;4.73;;;9.60;99.90;;;;;;5007945;28;20026;-84
2023/12/21 02:43:19;;;;;;;19.50;5.20;;;9.60;99.90;;;;;;5006874;28;20022;-84
2023/12/21 02:45:45;;;;;;;21.93;4.17;;;9.60;99.90;;;;;;5008350;28;20603;-84
2023/12/21 02:48:11;;;;;;;19.93;5.10;;;9.50;99.90;;;;;;5024306;28;20030;-84
2023/12/21 02:50:36;;;;;;;17.83;4.40;;;9.60;99.90;;;;;;5007735;28;20026;-84
2023/12/21 02:53:02;;;;;;;21.70;5.10;;;9.60;99.90;;;;;;5007332;28;20029;-84
2023/12/21 02:55:28;;;;;;;26.90;5.40;;;9.60;99.90;;;;;;5006868;28;20053;-84
2023/12/21 02:57:53;;;;;;;20.43;5.00;;;9.60;99.90;;;;;;5007294;28;20123;-85
2023/12/21 03:00:19;;;;;;;14.40;4.80;;;9.50;99.90;;;;;;5006385;28;20025;-83
2023/12/21 03:02:45;;;;;;;16.63;4.83;;;9.60;99.90;;;;;;5025453;28;20119;-85
2023/12/21 03:05:10;;;;;;;19.87;4.63;;;9.60;99.90;;;;;;5006142;28;20018;-85
2023/12/21 03:07:36;;;;;;;11.83;4.70;;;9.60;99.90;;;;;;5025311;28;20036;-85
2023/12/21 03:10:02;;;;;;;28.27;5.00;;;9.60;99.90;;;;;;5006213;28;20045;-85
2023/12/21 03:12:28;;;;;;;19.03;4.27;;;9.60;99.90;;;;;;5024559;28;20029;-84
2023/12/21 03:14:53;;;;;;;22.37;5.27;;;9.60;99.90;;;;;;5007137;28;20022;-84
2023/12/21 03:17:19;;;;;;;22.00;5.00;;;9.60;99.90;;;;;;5023952;28;20088;-85
2023/12/21 03:19:45;;;;;;;22.67;4.47;;;9.60;99.90;;;;;;5025134;28;20022;-84
2023/12/21 03:22:11;;;;;;;19.03;4.00;;;9.60;99.90;;;;;;5005818;28;20026;-84
2023/12/21 03:24:39;;;;;;;14.27;3.87;;;9.60;99.90;;;;;;5007058;28;20018;-84
2023/12/21 03:27:05;;;;;;;22.53;4.67;;;9.60;99.90;;;;;;5006272;28;20030;-84
2023/12/21 03:29:31;;;;;;;18.70;4.57;;;9.60;99.90;;;;;;5006649;28;20061;-85
2023/12/21 03:31:57;;;;;;;20.53;5.27;;;9.60;99.90;;;;;;5006652;28;20092;-82
2023/12/21 03:34:23;;;;;;;23.57;4.70;;;9.60;99.90;;;;;;5005580;28;20070;-84
2023/12/21 03:36:49;;;;;;;22.20;5.70;;;9.60;99.90;;;;;;4991010;28;20022;-84
2023/12/21 03:39:15;;;;;;;24.10;5.13;;;9.60;99.90;;;;;;5005332;28;20022;-84
2023/12/21 03:41:40;;;;;;;18.37;4.93;;;9.60;99.90;;;;;;5024550;28;20026;-84
2023/12/21 03:44:06;;;;;;;21.30;4.90;;;9.50;99.90;;;;;;5005644;28;20034;-82
2023/12/21 03:46:32;;;;;;;32.27;6.73;;;9.60;99.90;;;;;;5006454;28;20022;-84
2023/12/21 03:48:57;;;;;;;21.43;4.57;;;9.50;99.90;;;;;;5006262;28;20105;-84
2023/12/21 03:51:23;;;;;;;17.13;4.33;;;9.60;99.90;;;;;;5005697;28;20022;-84
2023/12/21 03:53:48;;;;;;;20.33;4.77;;;9.50;99.90;;;;;;5006342;28;20022;-84
2023/12/21 03:56:14;;;;;;;16.20;5.07;;;9.60;99.90;;;;;;5005106;28;20041;-84
2023/12/21 03:58:40;;;;;;;19.90;4.47;;;9.60;99.90;;;;;;5006773;28;20101;-84
2023/12/21 04:01:05;;;;;;;20.47;4.90;;;9.60;99.90;;;;;;5022920;28;20034;-84
2023/12/21 04:03:31;;;;;;;20.17;4.47;;;9.60;99.90;;;;;;5006653;28;20026;-85
2023/12/21 04:05:57;;;;;;;24.00;4.73;;;9.60;99.90;;;;;;5006250;28;20450;-84
2023/12/21 04:08:23;;;;;;;22.80;4.40;;;9.60;99.90;;;;;;5005405;28;20022;-84
2023/12/21 04:10:49;;;;;;;20.37;4.87;;;9.60;99.90;;;;;;5006142;28;20054;-84
2023/12/21 04:13:15;;;;;;;35.07;5.77;;;9.60;99.90;;;;;;5004844;28;20021;-84
2023/12/21 04:15:41;;;;;;;23.90;4.57;;;9.60;99.90;;;;;;5006619;28;20045;-84
2023/12/21 04:18:06;;;;;;;18.77;4.30;;;9.60;99.90;;;;;;5004655;28;20049;-84
2023/12/21 04:20:32;;;;;;;26.43;5.73;;;9.60;99.90;;;;;;5006105;28;20085;-85
2023/12/21 04:22:58;;;;;;;15.33;4.20;;;9.60;99.90;;;;;;5022987;28;20021;-85
2023/12/21 04:25:23;;;;;;;18.70;4.50;;;9.60;99.90;;;;;;5005144;28;20363;-85
2023/12/21 04:27:57;;;;;;;21.93;4.57;;;9.60;99.90;;;;;;5005905;28;20494;-85
2023/12/21 04:30:23;;;;;;;;;;;9.60;99.90;;;;;;5005692;28;20021;-85
2023/12/21 04:32:48;;;;;;;16.60;4.33;;;9.60;99.90;;;;;;5024263;28;19944;-85
2023/12/21 04:35:14;;;;;;;17.43;4.30;;;9.60;99.90;;;;;;5003948;28;20072;-85
2023/12/21 04:37:40;;;;;;;25.03;5.10;;;9.60;99.90;;;;;;5005582;28;20471;-86
2023/12/21 04:40:07;;;;;;;20.33;4.47;;;9.60;99.90;;;;;;5004810;28;20034;-85
2023/12/21 04:42:32;;;;;;;16.67;4.43;;;9.60;99.90;;;;;;5005368;28;20034;-85
2023/12/21 04:44:58;;;;;;;15.30;4.77;;;9.60;99.90;;;;;;5005540;28;20049;-84
2023/12/21 04:47:24;;;;;;;20.47;5.07;;;9.60;99.90;;;;;;5022341;28;20022;-84
2023/12/21 04:49:49;;;;;;;17.10;3.47;;;9.60;99.90;;;;;;5023405;28;20026;-84
2023/12/21 04:52:15;;;;;;;17.27;4.00;;;9.70;99.90;;;;;;5003862;28;20137;-85
2023/12/21 04:54:41;;;;;;;18.63;4.07;;;9.70;99.90;;;;;;5005690;28;20030;-84
2023/12/21 04:57:07;;;;;;;17.17;4.47;;;9.70;99.90;;;;;;5021936;28;20033;-84
2023/12/21 04:59:32;;;;;;;22.10;4.87;;;9.70;99.90;;;;;;5004947;28;20041;-84
2023/12/21 05:01:58;;;;;;;22.65;3.83;;;9.80;99.90;;;;;;5004868;28;20454;-84
2023/12/21 05:04:24;;;;;;;17.60;3.87;;;9.80;99.90;;;;;;5004356;28;20021;-85
2023/12/21 05:06:49;;;;;;;18.10;4.33;;;9.80;99.90;;;;;;5005387;28;20018;-84
2023/12/21 05:09:15;;;;;;;21.30;4.57;;;9.80;99.90;;;;;;5003735;28;20041;-83
2023/12/21 05:11:41;;;;;;;22.40;4.53;;;9.80;99.90;;;;;;5005432;28;20070;-83
2023/12/21 05:14:06;;;;;;;18.57;3.20;;;9.90;99.90;;;;;;5004591;28;20018;-83
2023/12/21 05:16:32;;;;;;;16.15;2.97;;;9.90;99.90;;;;;;5022403;28;20029;-84
2023/12/21 05:18:58;;;;;;;22.42;4.53;;;9.90;99.90;;;;;;5022564;28;20034;-85
2023/12/21 05:21:23;;;;;;;23.10;4.68;;;9.90;99.90;;;;;;5003706;28;20444;-85
2023/12/21 05:23:49;;;;;;;23.37;3.93;;;9.90;99.90;;;;;;5004998;28;20068;-84
2023/12/21 05:26:15;;;;;;;17.97;3.93;;;9.90;99.90;;;;;;5003539;28;20033;-84
2023/12/21 05:28:44;;;;;;;20.50;4.80;;;9.90;99.90;;;;;;4998341;28;20054;-84
2023/12/21 05:31:10;;;;;;;18.17;4.00;;;9.80;99.90;;;;;;4986429;28;20554;-85
2023/12/21 05:33:36;;;;;;;18.70;4.73;;;9.80;99.90;;;;;;5005065;28;20025;-84
2023/12/21 05:36:02;;;;;;;20.95;4.75;;;9.80;99.90;;;;;;5003337;28;20040;-85
2023/12/21 05:38:28;;;;;;;24.77;4.57;;;9.80;99.90;;;;;;5021652;28;20030;-85
2023/12/21 05:40:54;;;;;;;25.30;5.27;;;9.80;99.90;;;;;;5004666;28;20049;-85
2023/12/21 05:43:21;;;;;;;17.53;4.70;;;9.80;99.90;;;;;;5003397;28;20025;-85
2023/12/21 05:45:46;;;;;;;25.70;4.75;;;9.70;99.90;;;;;;5004644;28;20054;-86
2023/12/21 05:48:12;;;;;;;20.93;5.17;;;9.80;99.90;;;;;;5003337;28;20052;-84
2023/12/21 05:50:38;;;;;;;23.93;4.47;;;9.70;99.90;;;;;;5004732;28;20091;-85
2023/12/21 05:53:04;;;;;;;14.87;4.23;;;9.70;99.90;;;;;;5003593;28;20022;-85
2023/12/21 05:55:31;;;;;;;15.83;4.20;;;9.70;99.90;;;;;;5004112;28;20014;-86
2023/12/21 05:57:57;;;;;;;20.53;4.70;;;9.70;99.90;;;;;;5004226;28;20049;-84
2023/12/21 06:00:22;;;;;;;20.83;4.43;;;9.70;99.90;;;;;;5003553;28;20034;-84
2023/12/21 06:02:48;;;;;;;17.60;4.83;;;9.70;99.90;;;;;;5004735;28;20022;-84
2023/12/21 06:05:14;;;;;;;20.07;3.70;;;9.70;99.90;;;;;;5002755;28;20045;-85
2023/12/21 06:07:39;;;;;;;15.40;5.07;;;9.70;99.90;;;;;;5004500;28;20054;-83
2023/12/21 06:10:07;;;;;;;18.93;4.83;;;9.70;99.90;;;;;;5004577;28;20390;-84
2023/12/21 06:12:33;;;;;;;20.23;4.25;;;9.70;99.90;;;;;;5008146;28;20050;-85
2023/12/21 06:14:59;;;;;;;23.90;4.70;;;9.70;99.90;;;;;;5008210;28;20048;-83
2023/12/21 06:17:24;;;;;;;19.77;5.10;;;9.70;99.90;;;;;;5007300;28;20026;-83
2023/12/21 06:19:50;;;;;;;18.70;5.20;;;9.70;99.90;;;;;;5008058;28;20030;-83
2023/12/21 06:22:16;;;;;;;19.90;5.03;;;9.70;99.90;;;;;;5006606;28;20054;-82
2023/12/21 06:24:41;;;;;;;22.23;4.90;;;9.70;99.90;;;;;;5008626;28;20029;-84
2023/12/21 06:27:07;;;;;;;16.27;4.80;;;9.70;99.90;;;;;;5007257;28;20022;-84
2023/12/21 06:29:32;;;;;;;21.20;4.97;;;9.70;99.90;;;;;;5008137;28;20133;-84
2023/12/21 06:31:58;;;;;;;20.88;4.65;;;9.70;99.90;;;;;;5025484;28;20364;-84
2023/12/21 06:34:25;;;;;;;18.13;4.35;;;9.70;99.90;;;;;;5006759;28;20045;-82
2023/12/21 06:36:51;;;;;;;18.03;4.90;;;9.70;99.90;;;;;;5025748;28;20026;-82
2023/12/21 06:39:17;;;;;;;17.87;4.50;;;9.70;99.90;;;;;;5006590;28;20041;-83
2023/12/21 06:41:44;;;;;;;15.97;3.90;;;9.70;99.90;;;;;;5008180;28;20037;-82
2023/12/21 06:44:10;;;;;;;14.00;3.97;;;9.70;99.90;;;;;;5006740;28;20038;-85
2023/12/21 06:46:36;;;;;;;15.57;4.00;;;9.70;99.90;;;;;;5007958;28;20322;-83
2023/12/21 06:49:02;;;;;;;20.73;5.07;;;9.70;99.90;;;;;;5007012;28;20441;-83
2023/12/21 06:51:27;;;;;;;20.60;3.80;;;9.70;99.90;;;;;;5006878;28;20029;-84
2023/12/21 06:53:53;;;;;;;17.97;4.37;;;9.70;99.90;;;;;;5007874;28;20030;-83
2023/12/21 06:56:19;;;;;;;15.60;4.23;;;9.70;99.90;;;;;;5024992;28;20025;-83
2023/12/21 06:58:45;;;;;;;17.20;4.77;;;9.80;99.90;;;;;;5027731;28;20052;-82
2023/12/21 07:01:11;;;;;;;17.63;4.40;;;9.70;99.90;;;;;;5025609;28;20401;-82
2023/12/21 07:03:37;;;;;;;15.17;4.67;;;9.80;99.90;;;;;;5027298;28;20021;-83
2023/12/21 07:06:03;;;;;;;17.23;5.23;;;9.70;99.90;;;;;;5026459;28;20024;-83
2023/12/21 07:08:28;;;;;;;15.65;4.18;;;9.80;99.90;;;;;;5026095;28;20080;-83
2023/12/21 07:10:54;;;;;;;18.50;5.57;;;9.80;99.90;;;;;;5017747;28;20022;-82
2023/12/21 07:13:20;;;;;;;17.80;4.77;;;9.80;99.90;;;;;;5006178;28;20106;-83
2023/12/21 07:15:46;;;;;;;15.47;3.80;;;9.80;99.90;;;;;;5007400;28;20041;-83
2023/12/21 07:18:12;;;;;;;22.77;4.60;;;9.80;99.90;;;;;;5005078;28;20026;-83
2023/12/21 07:20:37;;;;;;;21.13;4.53;;;9.80;99.90;;;;;;5005084;28;20033;-83
2023/12/21 07:23:03;;;;;;;16.17;3.90;;;9.80;99.90;;;;;;5005684;28;20025;-83
2023/12/21 07:25:29;;;;;;;19.63;2.90;;;9.80;99.90;;;;;;5005266;28;20080;-83
2023/12/21 07:27:55;;;;;;;12.40;3.33;;;9.80;99.90;;;;;;5005661;28;20112;-83
2023/12/21 07:30:20;;;;;;;18.40;3.80;;;9.80;99.90;;;;;;5005740;28;20113;-84
2023/12/21 07:32:46;;;;;;;15.17;2.90;;;9.80;99.90;;;;;;5006709;28;20032;-82
2023/12/21 07:35:12;;;;;;;11.70;2.83;;;9.90;99.90;;;;;;5022224;28;20034;-83
2023/12/21 07:37:38;;;;;;;22.07;4.13;;;9.90;99.90;;;;;;5006589;28;20025;-83
2023/12/21 07:40:04;;;;;;;17.90;3.77;;;9.80;99.90;;;;;;5005488;28;20014;-82
2023/12/21 07:42:29;;;;;;;16.67;4.07;;;9.90;99.90;;;;;;5006411;28;20014;-83
2023/12/21 07:44:55;;;;;;;13.53;3.60;;;9.80;99.90;;;;;;5005973;28;20053;-83
2023/12/21 07:47:22;;;;;;;16.77;4.20;;;9.80;99.90;;;;;;5005407;28;20014;-84
2023/12/21 07:49:47;;;;;;;16.97;4.70;;;9.80;99.90;;;;;;5006594;28;20014;-84
2023/12/21 07:52:13;;;;;;;21.73;4.47;;;9.70;99.90;;;;;;5005033;28;20069;-84
2023/12/21 07:54:38;;;;;;;18.43;3.97;;;9.70;99.90;;;;;;5006803;28;20044;-85
2023/12/21 07:57:04;;;;;;;17.17;4.03;;;9.70;99.90;;;;;;5005355;28;20185;-85
2023/12/21 07:59:30;;;;;;;17.40;3.60;;;9.70;99.90;;;;;;5006084;28;20041;-87
2023/12/21 08:01:55;;;;;;;17.00;3.63;;;9.70;99.90;;;;;;5023693;28;20038;-83
2023/12/21 08:04:21;;;;;;;20.27;4.07;;;9.70;99.90;;;;;;5005718;28;20180;-83
2023/12/21 08:06:47;;;;;;;25.67;3.97;;;9.70;99.90;;;;;;5006445;28;20033;-84
2023/12/21 08:09:13;;;;;;;21.97;3.73;;;9.70;99.90;;;;;;5004860;28;20018;-83
2023/12/21 08:11:38;;;;;;;17.33;3.10;;;9.70;99.90;;;;;;5006718;28;20116;-83
2023/12/21 08:14:04;;;;;;;15.67;2.73;;;9.70;99.90;;;;;;5005036;28;20493;-84
2023/12/21 08:16:30;;;;;;;12.60;3.03;;;9.70;99.90;;;;;;5006646;28;20029;-86
2023/12/21 08:18:55;;;;;;;21.00;3.93;;;9.70;99.90;;;;;;5022915;28;20038;-87
2023/12/21 08:21:21;;;;;;;16.27;2.70;;;9.70;99.90;;;;;;5005716;28;20025;-82
2023/12/21 08:23:47;;;;;;;16.50;3.50;;;9.70;99.90;;;;;;5003207;28;20385;-82
2023/12/21 08:26:13;;;;;;;17.97;3.53;;;9.70;99.90;;;;;;5020630;28;20046;-81
2023/12/21 08:28:39;;;;;;;19.43;3.37;;;9.70;99.90;;;;;;5023081;28;20050;-82
2023/12/21 08:31:07;;;;;;;16.93;3.00;;;9.70;99.90;;;;;;5003651;28;20014;-82
2023/12/21 08:33:35;;;;;;;17.63;3.70;;;9.70;99.90;;;;;;5005089;28;20068;-83
2023/12/21 08:36:01;;;;;;;12.97;2.57;;;9.70;99.90;;;;;;5004498;28;20042;-82
2023/12/21 08:38:26;;;;;;;14.93;2.43;;;9.70;99.90;;;;;;5005481;28;20101;-82
2023/12/21 08:40:52;;;;;;;10.93;3.10;;;9.70;99.90;;;;;;5005595;28;20029;-83
2023/12/21 08:43:18;;;;;;;13.37;2.80;;;9.70;99.90;;;;;;5003994;28;20041;-83
2023/12/21 08:45:43;;;;;;;14.17;2.33;;;9.80;99.90;;;;;;5005998;28;20017;-83
2023/12/21 08:48:09;;;;;;;10.43;2.50;;;9.80;99.90;;;;;;5003905;28;20085;-83
2023/12/21 08:50:35;;;;;;;16.58;3.63;;;9.80;99.90;;;;;;5005835;28;20036;-83
2023/12/21 08:53:02;;;;;;;11.93;3.30;;;9.80;99.90;;;;;;5004518;28;20084;-83
2023/12/21 08:55:29;;;;;;;10.70;3.33;;;9.80;99.90;;;;;;5004859;28;20421;-83
2023/12/21 08:57:57;;;;;;;13.07;3.13;;;9.80;99.90;;;;;;5022727;28;20044;-83
2023/12/21 09:00:22;;;;;;;21.67;4.43;;;9.80;99.90;;;;;;5004194;28;20040;-84
2023/12/21 09:02:48;;;;;;;17.13;4.17;;;9.80;99.90;;;;;;5024165;28;20041;-83
2023/12/21 09:05:14;;;;;;;18.52;4.35;;;9.80;99.90;;;;;;5003550;28;20057;-83
2023/12/21 09:07:40;;;;;;;21.30;4.57;;;9.80;99.90;;;;;;5004929;28;20447;-82
2023/12/21 09:10:06;;;;;;;22.30;4.10;;;9.80;99.90;;;;;;5003330;28;20014;-82
2023/12/21 09:12:32;;;;;;;12.53;3.63;;;9.80;99.90;;;;;;5005019;28;20029;-83
2023/12/21 09:14:58;;;;;;;18.20;3.90;;;9.90;99.90;;;;;;5004850;28;20382;-82
2023/12/21 09:17:24;;;;;;;19.75;4.78;;;9.80;99.90;;;;;;5003650;28;20030;-84
2023/12/21 09:19:50;;;;;;;22.63;3.83;;;9.90;99.90;;;;;;4988511;28;20070;-85
2023/12/21 09:22:16;;;;;;;20.00;4.20;;;9.90;99.90;;;;;;4996137;28;20041;-84
2023/12/21 09:24:42;;;;;;;21.53;3.90;;;9.90;99.90;;;;;;5003421;28;20021;-84
2023/12/21 09:27:08;;;;;;;21.27;4.85;;;9.90;99.90;;;;;;5003128;28;20026;-82
2023/12/21 09:29:33;;;;;;;13.60;3.57;;;9.90;99.90;;;;;;5004302;28;20106;-82
2023/12/21 09:31:59;;;;;;;16.38;3.47;;;10.00;99.90;;;;;;5004062;28;20049;-82
2023/12/21 09:34:25;;;;;;;21.38;3.85;;;10.00;99.90;;;;;;5021411;28;20036;-83
2023/12/21 09:36:53;;;;;;;14.73;3.65;;;10.00;99.90;;;;;;5004706;28;20018;-82
2023/12/21 09:39:19;;;;;;;25.45;3.17;;;10.00;99.90;;;;;;5003084;28;20042;-83
2023/12/21 09:41:44;;;;;;;13.13;2.80;;;10.00;99.90;;;;;;5004616;28;20020;-83
2023/12/21 09:44:11;;;;;;;16.27;3.17;;;10.00;99.90;;;;;;5020678;28;20042;-83
2023/12/21 09:46:39;;;;;;;18.70;3.85;;;10.00;99.90;;;;;;5004675;28;20091;-83
2023/12/21 09:49:09;;;;;;;15.67;3.30;;;10.00;99.90;;;;;;5003951;28;20018;-83
2023/12/21 09:51:36;;;;;;;27.03;4.00;;;10.00;99.90;;;;;;5003777;28;20117;-84
2023/12/21 09:54:04;;;;;;;21.50;4.53;;;10.10;99.90;;;;;;5004270;28;20030;-83
2023/12/21 09:56:31;;;;;;;19.77;3.17;;;10.10;99.90;;;;;;5020552;28;20034;-84
2023/12/21 09:58:58;;;;;;;12.70;3.95;;;10.10;99.90;;;;;;5004272;28;20030;-83
2023/12/21 10:01:24;;;;;;;15.55;4.30;;;10.10;99.90;;;;;;5002726;28;20018;-83
2023/12/21 10:03:50;;;;;;;23.95;4.05;;;10.10;99.90;;;;;;5004450;28;20491;-83
2023/12/21 10:06:16;;;;;;;17.55;4.07;;;10.10;99.90;;;;;;5003363;28;20014;-83
2023/12/21 10:08:42;;;;;;;17.42;3.40;;;10.20;99.90;;;;;;5003539;28;20030;-83
2023/12/21 10:11:07;;;;;;;15.02;3.60;;;10.20;99.90;;;;;;5003926;28;20022;-83
2023/12/21 10:13:34;;;;;;;16.98;2.83;;;10.20;99.90;;;;;;5002998;28;20028;-83
2023/12/21 10:16:01;;;;;;;18.67;3.10;;;10.20;99.90;;;;;;5004911;28;20049;-83
2023/12/21 10:18:27;;;;;;;14.02;2.63;;;10.30;99.90;;;;;;5020534;28;20497;-83
2023/12/21 10:20:56;;;;;;;19.88;3.20;;;10.30;99.90;;;;;;5004247;28;20061;-84
2023/12/21 10:23:22;;;;;;;17.55;2.90;;;10.30;99.90;;;;;;4987772;28;20029;-83
2023/12/21 10:25:48;;;;;;;8.53;2.40;;;10.40;99.90;;;;;;5021177;28;20040;-83
2023/12/21 10:28:14;;;;;;;13.77;1.95;;;10.30;99.90;;;;;;5003593;28;20105;-83
2023/12/21 10:30:40;;;;;;;18.55;2.55;;;10.40;99.90;;;;;;5003060;28;20050;-84
2023/12/21 10:33:09;;;;;;;13.50;1.90;;;10.40;99.90;;;;;;5022414;28;20033;-83
2023/12/21 10:35:37;;;;;;;21.77;2.97;;;10.40;99.90;;;;;;5002770;28;20022;-84
2023/12/21 10:38:04;;;;;;;14.73;2.15;;;10.40;99.90;;;;;;5004469;28;20111;-84
2023/12/21 10:40:30;;;;;;;14.38;1.90;;;10.40;99.90;;;;;;5002959;28;20046;-82
2023/12/21 10:42:56;;;;;;;10.68;1.55;;;10.40;99.90;;;;;;5002914;28;20021;-83
2023/12/21 10:45:22;;;;;;;13.38;2.70;;;10.50;99.90;;;;;;5021371;28;20034;-83
2023/12/21 10:48:00;;;;;;;7.85;1.83;;;10.50;99.90;;;;;;5001871;28;20052;-83
2023/12/21 10:50:28;;;;;;;14.63;2.58;;;10.50;99.90;;;;;;5022059;28;20055;-83
2023/12/21 10:52:56;;;;;;;15.18;2.45;;;10.50;99.90;;;;;;5001441;28;20164;-83
2023/12/21 10:55:22;;;;;;;10.98;2.08;;;10.60;99.90;;;;;;5003796;28;20022;-83
2023/12/21 10:57:51;;;;;;;16.65;2.47;;;10.60;99.90;;;;;;5007440;28;20025;-83
2023/12/21 11:00:17;;;;;;;11.30;2.33;;;10.70;99.90;;;;;;5006898;28;20044;-82
2023/12/21 11:02:47;;;;;;;14.93;2.92;;;10.70;99.90;;;;;;5007674;28;20010;-83
2023/12/21 11:05:19;;;;;;;9.70;2.40;;;10.70;99.90;;;;;;5006163;28;20014;-83
2023/12/21 11:07:50;;;;;;;17.25;2.50;;;10.70;99.90;;;;;;5007755;28;20405;-83
2023/12/21 11:10:21;;;;;;;15.48;2.70;;;10.70;99.90;;;;;;5006113;28;20033;-84
2023/12/21 11:12:47;;;;;;;17.90;2.78;;;10.70;99.90;;;;;;5021419;28;20036;-85
2023/12/21 11:15:18;;;;;;;8.52;2.15;;;10.70;99.90;;;;;;5026852;28;20025;-85
2023/12/21 11:17:53;;;;;;;12.75;1.98;;;10.60;99.90;;;;;;5020958;28;20053;-84
2023/12/21 11:20:23;;;;;;;16.20;3.75;;;10.60;99.90;;;;;;5007052;28;20034;-85
2023/12/21 11:22:48;;;;;;;10.07;2.65;;;10.60;99.90;;;;;;5004039;28;20026;-84
2023/12/21 11:25:20;;;;;;;14.38;2.60;;;10.70;99.90;;;;;;5022620;28;20025;-85
2023/12/21 11:27:46;;;;;;;12.75;2.63;;;10.60;99.90;;;;;;5006239;28;20025;-84
2023/12/21 11:30:12;;;;;;;16.48;3.10;;;10.60;99.90;;;;;;5006568;28;20403;-85
2023/12/21 11:32:42;;;;;;;10.25;2.65;;;10.60;99.90;;;;;;5006433;28;20018;-85
2023/12/21 11:35:23;;;;;;;13.52;2.67;;;10.60;99.90;;;;;;5002123;28;20269;-87
2023/12/21 11:37:54;;;;;;;12.43;2.53;;;10.70;99.90;;;;;;5006897;28;20037;-85
2023/12/21 11:40:21;;;;;;;13.43;2.95;;;10.50;99.90;;;;;;5005829;28;20101;-86
2023/12/21 11:42:48;;;;;;;13.68;3.28;;;10.60;99.90;;;;;;5005995;28;20053;-86
2023/12/21 11:45:23;;;;;;;12.57;2.90;;;10.50;99.90;;;;;;5024197;28;20025;-85
2023/12/21 11:47:50;;;;;;;9.02;2.65;;;10.60;99.90;;;;;;5000963;28;20022;-86
2023/12/21 11:50:19;;;;;;;19.40;2.63;;;10.60;99.90;;;;;;4990653;28;20490;-86
2023/12/21 11:52:44;;;;;;;10.52;2.53;;;10.50;99.90;;;;;;5004922;28;20021;-86
2023/12/21 11:55:10;;;;;;;7.72;2.72;;;10.50;99.90;;;;;;5006613;28;20014;-87
2023/12/21 11:57:41;;;;;;;14.63;3.30;;;10.50;99.90;;;;;;5005126;28;20026;-87
2023/12/21 12:00:09;;;;;;;14.02;3.03;;;10.50;99.90;;;;;;5005978;28;20090;-86
2023/12/21 12:02:35;;;;;;;16.38;3.92;;;10.50;99.90;;;;;;5006238;28;20022;-85
2023/12/21 12:05:04;;;;;;;13.70;3.15;;;10.50;99.90;;;;;;5004784;28;20081;-86
2023/12/21 12:07:32;;;;;;;13.13;3.05;;;10.50;99.90;;;;;;5005107;28;20040;-87
2023/12/21 12:09:58;;;;;;;15.18;2.83;;;10.50;99.90;;;;;;5004627;28;20030;-86
2023/12/21 12:12:24;;;;;;;15.65;3.00;;;10.50;99.90;;;;;;5003412;28;20023;-85
2023/12/21 12:14:51;;;;;;;13.00;2.97;;;10.50;99.90;;;;;;5003052;28;20022;-84
2023/12/21 12:17:16;;;;;;;20.27;4.10;;;10.50;99.90;;;;;;5000168;28;20061;-85
2023/12/21 12:19:42;;;;;;;17.65;3.65;;;10.50;99.90;;;;;;5005397;28;20497;-83
2023/12/21 12:22:08;;;;;;;14.77;3.88;;;10.50;99.90;;;;;;5004231;28;20088;-84
2023/12/21 12:24:34;;;;;;;14.48;3.22;;;10.50;99.90;;;;;;5006405;28;20113;-84
2023/12/21 12:27:00;;;;;;;15.25;3.13;;;10.50;99.90;;;;;;5003660;28;20521;-84
2023/12/21 12:29:34;;;;;;;11.13;3.13;;;10.50;99.90;;;;;;5007211;28;20072;-83
2023/12/21 12:32:00;;;;;;;9.18;2.47;;;10.50;99.90;;;;;;5004282;28;20029;-85
2023/12/21 12:34:26;;;;;;;10.50;2.70;;;10.50;99.90;;;;;;5002488;28;20018;-85
2023/12/21 12:36:54;;;;;;;7.35;1.70;;;10.50;99.90;;;;;;5002041;28;20117;-84
2023/12/21 12:39:21;;;;;;;7.70;1.60;;;10.50;99.90;;;;;;5000222;28;20107;-86
2023/12/21 12:41:52;;;;;;;7.78;1.48;;;10.40;99.90;;;;;;5005501;28;20364;-87